Time;durP1;ratioP1;P1;durP2;ratioP2;P2;SDS_P1;SDS_P2;PMS_P1;PMS_P2;Temp;Humidity;BMP_temperature;BMP_pressure;BME280_temperature;BME280_humidity;BME280_pressure;Samples;Min_cycle;Max_cycle;Signal;HPM_P1;HPM_P2
2023/04/23 00:01:26;;;;;;;7.18;3.03;;;13.00;99.90;;;;;;5044355;28;20092;-91
2023/04/23 00:04:06;;;;;;;3.88;2.50;;;13.00;99.90;;;;;;5041037;28;20086;-90
2023/04/23 00:06:47;;;;;;;7.70;3.00;;;13.00;99.90;;;;;;5043285;28;20029;-89
2023/04/23 00:09:17;;;;;;;6.75;2.78;;;13.00;99.90;;;;;;5042614;28;20041;-90
2023/04/23 00:12:00;;;;;;;5.07;2.70;;;13.00;99.90;;;;;;5044541;28;20040;-91
2023/04/23 00:14:26;;;;;;;5.07;2.80;;;13.00;99.90;;;;;;5045932;28;20025;-91
2023/04/23 00:16:59;;;;;;;4.47;2.88;;;12.90;99.90;;;;;;5045778;28;20111;-90
2023/04/23 00:19:27;;;;;;;4.00;2.33;;;12.90;99.90;;;;;;5045661;28;20506;-90
2023/04/23 00:21:55;;;;;;;4.82;2.90;;;12.90;99.90;;;;;;5045419;28;20032;-90
2023/04/23 00:24:26;;;;;;;6.47;3.05;;;12.90;99.90;;;;;;5044633;28;20082;-89
2023/04/23 00:27:00;;;;;;;5.78;3.00;;;12.90;99.90;;;;;;5040772;28;20097;-91
2023/04/23 00:29:26;;;;;;;5.18;3.30;;;12.90;99.90;;;;;;5043422;28;20106;-91
2023/04/23 00:31:54;;;;;;;5.10;3.08;;;12.90;99.90;;;;;;5044306;28;20033;-89
2023/04/23 00:34:20;;;;;;;5.22;2.75;;;12.80;99.90;;;;;;5041488;28;21011;-90
2023/04/23 00:36:45;;;;;;;4.72;3.00;;;12.90;99.90;;;;;;5041130;28;20088;-90
2023/04/23 00:39:16;;;;;;;4.97;2.80;;;12.80;99.90;;;;;;5040665;28;20155;-90
2023/04/23 00:41:45;;;;;;;10.43;2.90;;;12.80;99.90;;;;;;5041336;28;20020;-90
2023/04/23 00:44:18;;;;;;;4.30;2.60;;;12.80;99.90;;;;;;5040155;28;20124;-90
2023/04/23 00:46:47;;;;;;;7.15;2.97;;;12.80;99.90;;;;;;5040742;28;20029;-90
2023/04/23 00:49:17;;;;;;;6.30;3.00;;;12.80;99.90;;;;;;5040253;28;20021;-89
2023/04/23 00:51:47;;;;;;;4.82;2.88;;;12.80;99.90;;;;;;5041067;28;20032;-89
2023/04/23 00:54:20;;;;;;;4.90;3.05;;;12.80;99.90;;;;;;5041925;28;20116;-90
2023/04/23 00:56:50;;;;;;;4.68;3.00;;;12.70;99.90;;;;;;5043384;28;20057;-90
2023/04/23 00:59:18;;;;;;;5.45;3.20;;;12.70;99.90;;;;;;5042990;28;20514;-90
2023/04/23 01:01:47;;;;;;;8.23;3.20;;;12.70;99.90;;;;;;5040242;28;21379;-90
2023/04/23 01:04:18;;;;;;;5.40;3.03;;;12.70;99.90;;;;;;5042372;28;20477;-91
2023/04/23 01:06:46;;;;;;;6.40;3.25;;;12.70;99.90;;;;;;5042399;28;20025;-90
2023/04/23 01:09:17;;;;;;;9.60;3.70;;;12.70;99.90;;;;;;5041337;28;20029;-89
2023/04/23 01:11:46;;;;;;;6.10;2.70;;;12.60;99.90;;;;;;5044081;28;20036;-90
2023/04/23 01:14:16;;;;;;;8.07;3.10;;;12.60;99.90;;;;;;5044804;28;20868;-91
2023/04/23 01:16:49;;;;;;;8.20;3.13;;;12.60;99.90;;;;;;5041909;28;20036;-90
2023/04/23 01:19:18;;;;;;;4.25;2.78;;;12.60;99.90;;;;;;5041666;28;20139;-90
2023/04/23 01:21:48;;;;;;;4.65;2.88;;;12.60;99.90;;;;;;5040149;28;20025;-92
2023/04/23 01:24:16;;;;;;;5.50;2.72;;;12.60;99.90;;;;;;5041973;28;20024;-90
2023/04/23 01:26:49;;;;;;;8.10;3.10;;;12.60;99.90;;;;;;5044592;28;20413;-90
2023/04/23 01:29:15;;;;;;;5.82;2.95;;;12.60;99.90;;;;;;5049644;28;20037;-90
2023/04/23 01:31:47;;;;;;;5.97;3.00;;;12.60;99.90;;;;;;5047367;28;20104;-90
2023/04/23 01:34:29;;;;;;;6.25;3.38;;;12.50;99.90;;;;;;5056977;28;20021;-90
2023/04/23 01:36:58;;;;;;;7.30;3.40;;;12.50;99.90;;;;;;5056707;28;20082;-90
2023/04/23 01:39:26;;;;;;;6.13;3.50;;;12.50;99.90;;;;;;5051883;28;20051;-90
2023/04/23 01:42:00;;;;;;;4.40;3.10;;;12.50;99.90;;;;;;5046236;28;20024;-90
2023/04/23 01:44:28;;;;;;;6.03;3.10;;;12.40;99.90;;;;;;5047158;28;20477;-90
2023/04/23 01:46:56;;;;;;;7.63;3.38;;;12.40;99.90;;;;;;5046546;28;20024;-90
2023/04/23 01:49:26;;;;;;;5.78;3.40;;;12.40;99.90;;;;;;5050127;28;20105;-90
2023/04/23 01:51:59;;;;;;;4.53;3.17;;;12.40;99.90;;;;;;5047606;28;20664;-91
2023/04/23 01:54:27;;;;;;;5.47;3.50;;;12.30;99.90;;;;;;5052524;28;20104;-90
2023/04/23 01:57:04;;;;;;;6.57;3.50;;;12.40;99.90;;;;;;5054007;28;20044;-91
2023/04/23 01:59:29;;;;;;;5.18;3.40;;;12.30;99.90;;;;;;5047386;28;20025;-92
2023/04/23 02:01:58;;;;;;;5.65;3.45;;;12.30;99.90;;;;;;5049431;28;20036;-92
2023/04/23 02:04:26;;;;;;;6.57;3.70;;;12.30;99.90;;;;;;5049948;28;20485;-92
2023/04/23 02:07:00;;;;;;;7.00;4.10;;;12.30;99.90;;;;;;5048804;28;20040;-91
2023/04/23 02:09:25;;;;;;;7.27;3.67;;;12.30;99.90;;;;;;5047370;28;20029;-91
2023/04/23 02:11:53;;;;;;;8.18;4.50;;;12.30;99.90;;;;;;5046859;28;20079;-90
2023/04/23 02:14:19;;;;;;;6.63;3.58;;;12.20;99.90;;;;;;5049215;28;20025;-90
2023/04/23 02:16:48;;;;;;;5.88;3.50;;;12.20;99.90;;;;;;5049734;28;20317;-90
2023/04/23 02:19:16;;;;;;;8.07;3.72;;;12.20;99.90;;;;;;5050461;28;20058;-89
2023/04/23 02:21:47;;;;;;;6.22;3.50;;;12.20;99.90;;;;;;5049800;28;21054;-91
2023/04/23 02:24:20;;;;;;;6.32;3.60;;;12.20;99.90;;;;;;5051104;28;21368;-90
2023/04/23 02:26:46;;;;;;;6.22;3.72;;;12.20;99.90;;;;;;5050827;28;20489;-90
2023/04/23 02:29:19;;;;;;;6.63;3.65;;;12.20;99.90;;;;;;5049829;28;20028;-91
2023/04/23 02:31:47;;;;;;;6.18;3.20;;;12.10;99.90;;;;;;5054018;28;20021;-93
2023/04/23 02:34:16;;;;;;;5.88;3.17;;;12.10;99.90;;;;;;5056264;28;20029;-90
2023/04/23 02:36:49;;;;;;;6.65;3.33;;;12.10;99.90;;;;;;5044740;28;20025;-90
2023/04/23 02:39:17;;;;;;;5.25;3.35;;;12.10;99.90;;;;;;5046248;28;20021;-90
2023/04/23 02:41:50;;;;;;;5.38;3.30;;;12.10;99.90;;;;;;5043729;28;20048;-90
2023/04/23 02:44:16;;;;;;;7.10;3.63;;;12.10;99.90;;;;;;5045463;28;20028;-90
2023/04/23 02:46:48;;;;;;;4.55;3.30;;;12.10;99.90;;;;;;5044823;28;20029;-89
2023/04/23 02:49:16;;;;;;;5.57;3.60;;;12.10;99.90;;;;;;5045262;28;20037;-90
2023/04/23 02:51:47;;;;;;;5.72;3.63;;;12.10;99.90;;;;;;5043317;28;20021;-91
2023/04/23 02:54:16;;;;;;;5.78;3.50;;;12.10;99.90;;;;;;5044728;28;20040;-91
2023/04/23 02:56:50;;;;;;;9.25;3.30;;;12.00;99.90;;;;;;5043639;28;20050;-89
2023/04/23 02:59:16;;;;;;;5.72;3.35;;;12.00;99.90;;;;;;5043992;28;20083;-90
2023/04/23 03:01:49;;;;;;;6.43;3.65;;;12.10;99.90;;;;;;5044937;28;20082;-89
2023/04/23 03:04:17;;;;;;;3.85;3.10;;;12.00;99.90;;;;;;5043765;28;20025;-90
2023/04/23 03:06:47;;;;;;;8.77;3.65;;;12.00;99.90;;;;;;5043475;28;20384;-90
2023/04/23 03:09:16;;;;;;;9.52;3.85;;;12.00;99.90;;;;;;5047144;28;20472;-90
2023/04/23 03:11:49;;;;;;;7.32;3.63;;;12.00;99.90;;;;;;5029797;28;20025;-90
2023/04/23 03:14:15;;;;;;;5.47;3.50;;;12.00;99.90;;;;;;5068276;22;20037;-82
2023/04/23 03:16:41;;;;;;;5.25;3.08;;;12.00;99.90;;;;;;5060503;28;20040;-81
2023/04/23 03:19:06;;;;;;;6.72;2.92;;;12.00;99.90;;;;;;5059804;28;20042;-82
2023/04/23 03:21:32;;;;;;;6.38;3.30;;;12.00;99.90;;;;;;5047568;28;20397;-82
2023/04/23 03:23:57;;;;;;;6.72;3.47;;;12.00;99.90;;;;;;5046383;28;20053;-82
2023/04/23 03:26:23;;;;;;;5.05;3.40;;;12.00;99.90;;;;;;5045721;28;20047;-82
2023/04/23 03:28:48;;;;;;;4.55;3.47;;;12.00;99.90;;;;;;5045315;28;20898;-79
2023/04/23 03:31:14;;;;;;;5.78;3.50;;;12.00;99.90;;;;;;5040188;28;20056;-79
2023/04/23 03:33:39;;;;;;;5.80;3.47;;;11.90;99.90;;;;;;5041979;28;20707;-79
2023/04/23 03:36:05;;;;;;;6.90;3.67;;;11.90;99.90;;;;;;5041586;28;20730;-79
2023/04/23 03:38:31;;;;;;;6.70;3.58;;;11.90;99.90;;;;;;5041219;28;20060;-79
2023/04/23 03:40:56;;;;;;;5.85;3.72;;;11.80;99.90;;;;;;5039610;28;20033;-79
2023/04/23 03:43:22;;;;;;;6.93;4.07;;;11.80;99.90;;;;;;5041242;28;20548;-79
2023/04/23 03:45:47;;;;;;;6.82;5.25;;;11.80;99.90;;;;;;5041142;28;20036;-79
2023/04/23 03:48:13;;;;;;;10.27;5.65;;;11.70;99.90;;;;;;5041593;28;20025;-79
2023/04/23 03:50:39;;;;;;;10.27;5.88;;;11.60;99.90;;;;;;5039618;28;20041;-79
2023/04/23 03:53:06;;;;;;;6.30;5.18;;;11.60;99.90;;;;;;5040800;28;20057;-79
2023/04/23 03:55:32;;;;;;;8.02;4.90;;;11.60;99.90;;;;;;5041111;28;20831;-80
2023/04/23 03:58:00;;;;;;;6.57;4.78;;;11.60;99.90;;;;;;5041172;28;20044;-79
2023/04/23 04:00:26;;;;;;;7.82;4.40;;;11.60;99.90;;;;;;5039669;28;20550;-80
2023/04/23 04:02:51;;;;;;;6.82;4.93;;;11.60;99.90;;;;;;5041060;28;20021;-79
2023/04/23 04:05:17;;;;;;;11.88;5.30;;;11.50;99.90;;;;;;5040790;28;20164;-79
2023/04/23 04:07:42;;;;;;;12.18;4.60;;;11.50;99.90;;;;;;5041395;28;20397;-79
2023/04/23 04:10:08;;;;;;;7.53;5.60;;;11.50;99.90;;;;;;5039074;28;20497;-78
2023/04/23 04:12:34;;;;;;;6.97;4.78;;;11.50;99.90;;;;;;5039703;28;20021;-79
2023/04/23 04:14:59;;;;;;;6.30;4.50;;;11.50;99.90;;;;;;5040522;28;20043;-79
2023/04/23 04:17:25;;;;;;;8.63;5.25;;;11.50;99.90;;;;;;5040665;28;20033;-79
2023/04/23 04:19:51;;;;;;;7.57;4.63;;;11.50;99.90;;;;;;5038457;28;20021;-79
2023/04/23 04:22:16;;;;;;;6.25;4.90;;;11.50;99.90;;;;;;5040356;28;20108;-80
2023/04/23 04:24:42;;;;;;;6.40;4.70;;;11.50;99.90;;;;;;5041542;28;20500;-80
2023/04/23 04:27:08;;;;;;;6.22;4.90;;;11.50;99.90;;;;;;5046741;28;20029;-81
2023/04/23 04:29:33;;;;;;;7.88;4.82;;;11.50;99.90;;;;;;5045181;28;20045;-81
2023/04/23 04:32:00;;;;;;;8.77;4.68;;;11.40;99.90;;;;;;5043330;28;20558;-81
2023/04/23 04:34:25;;;;;;;9.00;4.95;;;11.40;99.90;;;;;;5043870;28;20036;-81
2023/04/23 04:36:52;;;;;;;7.47;5.13;;;11.40;99.90;;;;;;5043326;28;20033;-82
2023/04/23 04:39:19;;;;;;;8.88;4.43;;;11.40;99.90;;;;;;5043487;28;20033;-81
2023/04/23 04:41:45;;;;;;;6.00;4.30;;;11.40;99.90;;;;;;5042616;28;20116;-81
2023/04/23 04:44:13;;;;;;;7.20;4.70;;;11.30;99.90;;;;;;5043962;28;20059;-80
2023/04/23 04:46:39;;;;;;;6.63;4.35;;;11.40;99.90;;;;;;5044904;28;20052;-81
2023/04/23 04:49:07;;;;;;;6.47;4.55;;;11.30;99.90;;;;;;5043765;28;20091;-82
2023/04/23 04:51:32;;;;;;;8.05;5.07;;;11.30;99.90;;;;;;5041261;28;20068;-81
2023/04/23 04:53:58;;;;;;;7.30;4.90;;;11.30;99.90;;;;;;5043443;28;20104;-81
2023/04/23 04:56:24;;;;;;;7.13;5.13;;;11.30;99.90;;;;;;5043430;28;20027;-81
2023/04/23 04:58:50;;;;;;;11.48;5.15;;;11.30;99.90;;;;;;5043753;28;20029;-81
2023/04/23 05:01:17;;;;;;;6.60;4.70;;;11.30;99.90;;;;;;5041872;28;20039;-81
2023/04/23 05:03:42;;;;;;;6.68;5.13;;;11.30;99.90;;;;;;5042743;28;20615;-81
2023/04/23 05:06:08;;;;;;;6.35;5.38;;;11.30;99.90;;;;;;5043487;28;20033;-81
2023/04/23 05:08:34;;;;;;;6.93;4.65;;;11.30;99.90;;;;;;5043887;28;20032;-82
2023/04/23 05:11:00;;;;;;;6.57;5.07;;;11.20;99.90;;;;;;5041661;28;20048;-82
2023/04/23 05:13:26;;;;;;;8.55;4.82;;;11.20;99.90;;;;;;5043114;28;20044;-81
2023/04/23 05:15:51;;;;;;;9.75;4.93;;;11.30;99.90;;;;;;5042727;28;20033;-80
2023/04/23 05:18:17;;;;;;;6.70;4.50;;;11.30;99.90;;;;;;5043562;28;20029;-81
2023/04/23 05:20:42;;;;;;;8.00;5.13;;;11.30;99.90;;;;;;5041045;28;20032;-82
2023/04/23 05:23:08;;;;;;;9.02;5.43;;;11.30;99.90;;;;;;5043064;28;20041;-80
2023/04/23 05:25:34;;;;;;;8.18;5.00;;;11.30;99.90;;;;;;5043194;28;20029;-80
2023/04/23 05:28:00;;;;;;;10.15;5.80;;;11.30;99.90;;;;;;5042288;28;20068;-80
2023/04/23 05:30:26;;;;;;;10.30;5.60;;;11.30;99.90;;;;;;5040247;28;20037;-80
2023/04/23 05:32:52;;;;;;;7.85;5.38;;;11.20;99.90;;;;;;5042026;28;20033;-80
2023/04/23 05:35:17;;;;;;;9.40;5.30;;;11.30;99.90;;;;;;5040472;28;20086;-79
2023/04/23 05:37:43;;;;;;;7.05;5.15;;;11.30;99.90;;;;;;5041558;28;20075;-79
2023/04/23 05:40:09;;;;;;;8.43;5.57;;;11.20;99.90;;;;;;5038733;28;20037;-80
2023/04/23 05:42:35;;;;;;;8.82;6.13;;;11.20;99.90;;;;;;5040974;28;20032;-80
2023/04/23 05:45:01;;;;;;;10.13;6.80;;;11.20;99.90;;;;;;5023702;28;20044;-80
2023/04/23 05:47:28;;;;;;;8.15;5.75;;;11.10;99.90;;;;;;5044183;28;20025;-80
2023/04/23 05:49:56;;;;;;;8.98;5.63;;;11.10;99.90;;;;;;5042014;28;20068;-80
2023/04/23 05:52:23;;;;;;;9.48;6.18;;;11.10;99.90;;;;;;5043037;28;20040;-80
2023/04/23 05:54:49;;;;;;;7.38;5.82;;;11.10;99.90;;;;;;5041314;28;20029;-80
2023/04/23 05:57:15;;;;;;;9.23;6.00;;;11.10;99.90;;;;;;5043330;28;20017;-79
2023/04/23 05:59:40;;;;;;;7.25;6.03;;;11.10;99.90;;;;;;5042702;28;20171;-80
2023/04/23 06:02:08;;;;;;;10.60;6.30;;;11.00;99.90;;;;;;5041839;28;20083;-80
2023/04/23 06:04:33;;;;;;;8.68;6.32;;;11.10;99.90;;;;;;5043217;28;20039;-80
2023/04/23 06:06:59;;;;;;;10.88;6.75;;;11.10;99.90;;;;;;5041491;28;20025;-80
2023/04/23 06:09:24;;;;;;;8.60;6.67;;;11.10;99.90;;;;;;5045646;28;20040;-80
2023/04/23 06:11:52;;;;;;;8.65;5.75;;;11.10;99.90;;;;;;5042983;28;20033;-80
2023/04/23 06:14:17;;;;;;;13.30;6.90;;;11.10;99.90;;;;;;5043796;28;20440;-80
2023/04/23 06:16:43;;;;;;;11.98;6.60;;;11.10;99.90;;;;;;5043158;28;20033;-80
2023/04/23 06:19:08;;;;;;;10.00;6.97;;;11.10;99.90;;;;;;5047780;28;20171;-85
2023/04/23 06:21:34;;;;;;;9.07;6.85;;;11.10;99.90;;;;;;5047984;28;20055;-83
2023/04/23 06:23:59;;;;;;;8.50;6.63;;;11.10;99.90;;;;;;5047991;28;20021;-84
2023/04/23 06:26:25;;;;;;;11.23;6.07;;;11.10;99.90;;;;;;5046473;28;20028;-84
2023/04/23 06:28:50;;;;;;;8.07;6.13;;;11.20;99.90;;;;;;5047940;28;20036;-84
2023/04/23 06:31:16;;;;;;;9.80;6.82;;;11.10;99.90;;;;;;5048273;28;20028;-84
2023/04/23 06:33:42;;;;;;;9.93;6.53;;;11.10;99.90;;;;;;5045732;28;20504;-83
2023/04/23 06:36:10;;;;;;;8.55;6.32;;;11.10;99.90;;;;;;5046538;28;20160;-82
2023/04/23 06:38:36;;;;;;;8.00;6.40;;;11.10;99.90;;;;;;5047865;28;20037;-82
2023/04/23 06:41:03;;;;;;;9.82;6.60;;;11.10;99.90;;;;;;5045794;28;20508;-82
2023/04/23 06:43:29;;;;;;;9.48;7.30;;;11.10;99.90;;;;;;5047458;28;20451;-84
2023/04/23 06:45:55;;;;;;;11.90;7.53;;;11.10;99.90;;;;;;5047217;28;20048;-84
2023/04/23 06:48:21;;;;;;;8.82;6.60;;;11.10;99.90;;;;;;5045319;28;20033;-84
2023/04/23 06:50:47;;;;;;;11.57;7.40;;;11.10;99.90;;;;;;5042973;28;20493;-87
2023/04/23 06:53:13;;;;;;;10.35;6.55;;;11.10;99.90;;;;;;5042301;28;20021;-86
2023/04/23 06:55:38;;;;;;;9.50;7.43;;;11.10;99.90;;;;;;5042017;28;20524;-87
2023/04/23 06:58:06;;;;;;;11.25;8.23;;;11.20;99.90;;;;;;5042681;28;20025;-86
2023/04/23 07:00:32;;;;;;;9.43;7.00;;;11.20;99.90;;;;;;5041565;28;20505;-86
2023/04/23 07:02:57;;;;;;;10.27;6.95;;;11.20;99.90;;;;;;5043294;28;20032;-79
2023/04/23 07:05:23;;;;;;;9.10;7.35;;;11.30;99.90;;;;;;5042654;28;20041;-78
2023/04/23 07:07:49;;;;;;;12.45;7.63;;;11.30;99.90;;;;;;5044016;28;20020;-81
2023/04/23 07:10:14;;;;;;;10.32;7.05;;;11.30;99.90;;;;;;5045033;28;20091;-81
2023/04/23 07:12:40;;;;;;;9.70;6.55;;;11.40;99.90;;;;;;5042133;28;20312;-80
2023/04/23 07:15:07;;;;;;;9.30;6.53;;;11.40;99.90;;;;;;5043343;28;20039;-82
2023/04/23 07:17:33;;;;;;;10.82;6.50;;;11.40;99.90;;;;;;5044233;28;20041;-78
2023/04/23 07:19:58;;;;;;;7.80;5.65;;;11.40;99.90;;;;;;5039534;28;20047;-79
2023/04/23 07:22:25;;;;;;;8.27;6.10;;;11.40;99.90;;;;;;5041079;28;20492;-79
2023/04/23 07:24:51;;;;;;;10.88;6.60;;;11.40;99.90;;;;;;5039942;28;21054;-79
2023/04/23 07:27:17;;;;;;;8.98;6.45;;;11.50;99.90;;;;;;5042376;28;20028;-76
2023/04/23 07:29:43;;;;;;;9.13;6.20;;;11.50;99.90;;;;;;5042019;28;20132;-79
2023/04/23 07:32:08;;;;;;;7.28;5.32;;;11.50;99.90;;;;;;5041900;28;20405;-79
2023/04/23 07:34:35;;;;;;;8.25;5.60;;;11.50;99.90;;;;;;5043418;28;20094;-79
2023/04/23 07:37:01;;;;;;;8.25;6.05;;;11.50;99.90;;;;;;5044595;28;20037;-79
2023/04/23 07:39:27;;;;;;;6.95;5.05;;;11.50;99.90;;;;;;5042527;28;20025;-80
2023/04/23 07:41:52;;;;;;;9.50;5.35;;;11.60;99.90;;;;;;5043153;28;20033;-82
2023/04/23 07:44:18;;;;;;;7.70;5.05;;;11.50;99.90;;;;;;5041694;28;20025;-81
2023/04/23 07:46:44;;;;;;;7.40;5.00;;;11.60;99.90;;;;;;5035411;28;20583;-82
2023/04/23 07:49:09;;;;;;;8.10;5.55;;;11.60;99.90;;;;;;5045054;28;20040;-80
2023/04/23 07:51:35;;;;;;;8.65;6.20;;;11.60;99.90;;;;;;5046844;28;20119;-85
2023/04/23 07:54:00;;;;;;;7.72;5.78;;;11.50;99.90;;;;;;5044100;28;20470;-84
2023/04/23 07:56:26;;;;;;;8.75;6.07;;;11.50;99.90;;;;;;5048260;28;20025;-82
2023/04/23 07:58:52;;;;;;;6.32;5.55;;;11.50;99.90;;;;;;5048328;28;20535;-83
2023/04/23 08:01:18;;;;;;;9.95;5.53;;;11.50;99.90;;;;;;5045878;28;20039;-79
2023/04/23 08:03:44;;;;;;;7.88;5.90;;;11.50;99.90;;;;;;5049168;28;20943;-81
2023/04/23 08:06:11;;;;;;;5.32;4.60;;;11.50;99.90;;;;;;5049967;28;20032;-80
2023/04/23 08:08:37;;;;;;;7.32;5.50;;;11.50;99.90;;;;;;5048784;28;20076;-80
2023/04/23 08:11:04;;;;;;;9.15;5.80;;;11.50;99.90;;;;;;5049479;28;20037;-81
2023/04/23 08:13:29;;;;;;;7.13;5.53;;;11.50;99.90;;;;;;5049508;28;21782;-79
2023/04/23 08:15:55;;;;;;;8.00;5.90;;;11.50;99.90;;;;;;5048569;28;20170;-79
2023/04/23 08:18:20;;;;;;;7.55;4.82;;;11.50;99.90;;;;;;5049493;28;20033;-79
2023/04/23 08:20:47;;;;;;;9.82;7.55;;;11.60;99.90;;;;;;5048658;28;21626;-81
2023/04/23 08:23:12;;;;;;;10.25;7.90;;;11.60;99.90;;;;;;5051025;28;20036;-79
2023/04/23 08:25:38;;;;;;;11.73;9.75;;;11.70;99.90;;;;;;5051091;28;20029;-80
2023/04/23 08:28:04;;;;;;;11.15;7.20;;;11.80;99.90;;;;;;5050929;28;20974;-81
2023/04/23 08:30:29;;;;;;;7.90;6.28;;;11.90;99.90;;;;;;5050461;28;20287;-80
2023/04/23 08:32:56;;;;;;;7.72;5.78;;;12.10;99.90;;;;;;5050314;28;20077;-80
2023/04/23 08:35:23;;;;;;;5.65;5.05;;;12.20;99.90;;;;;;5050658;28;20047;-81
2023/04/23 08:37:48;;;;;;;5.93;4.35;;;12.40;99.90;;;;;;5034339;28;20055;-82
2023/04/23 08:40:14;;;;;;;5.88;4.20;;;12.50;99.90;;;;;;5047452;28;20029;-81
2023/04/23 08:42:55;;;;;;;4.72;3.88;;;12.70;99.90;;;;;;5047459;28;20510;-81
2023/04/23 08:45:21;;;;;;;5.53;4.15;;;13.00;99.90;;;;;;5050268;28;20036;-81
2023/04/23 08:47:47;;;;;;;5.25;4.22;;;13.10;99.90;;;;;;5047557;28;20029;-81
2023/04/23 08:50:17;;;;;;;6.55;4.03;;;13.20;99.90;;;;;;5047323;28;20083;-81
2023/04/23 08:52:52;;;;;;;6.28;3.97;;;13.30;99.90;;;;;;5049684;28;20021;-82
2023/04/23 08:55:18;;;;;;;7.68;4.15;;;13.30;99.90;;;;;;5050310;28;20067;-82
2023/04/23 08:57:45;;;;;;;6.07;3.70;;;13.40;99.90;;;;;;5050953;28;20055;-82
2023/04/23 09:00:12;;;;;;;5.38;3.55;;;13.40;99.90;;;;;;5050487;28;20036;-82
2023/04/23 09:02:43;;;;;;;4.82;3.35;;;13.60;99.90;;;;;;5048795;28;20048;-82
2023/04/23 09:05:09;;;;;;;6.85;3.90;;;13.70;99.90;;;;;;5051024;28;20029;-82
2023/04/23 09:07:35;;;;;;;5.32;3.33;;;13.90;99.90;;;;;;5051693;28;20044;-83
2023/04/23 09:10:05;;;;;;;5.03;3.50;;;14.00;99.90;;;;;;5048636;28;20045;-82
2023/04/23 09:12:34;;;;;;;5.53;3.40;;;14.20;99.90;;;;;;5049072;28;20033;-83
2023/04/23 09:15:01;;;;;;;5.40;3.38;;;14.30;99.90;;;;;;5046129;28;20049;-82
2023/04/23 09:17:29;;;;;;;5.10;3.40;;;14.40;99.90;;;;;;5050527;28;20584;-82
2023/04/23 09:19:55;;;;;;;4.18;2.80;;;14.50;99.90;;;;;;5046863;28;20052;-81
2023/04/23 09:22:49;;;;;;;4.43;2.58;;;14.60;99.90;;;;;;5046841;28;20033;-80
2023/04/23 09:25:17;;;;;;;4.95;2.80;;;14.80;99.90;;;;;;5046267;28;20056;-83
2023/04/23 09:27:43;;;;;;;3.58;2.47;;;15.00;99.90;;;;;;5051735;28;20017;-83
2023/04/23 09:30:10;;;;;;;5.53;2.95;;;15.20;99.90;;;;;;5048630;28;20121;-82
2023/04/23 09:32:38;;;;;;;4.35;2.47;;;15.30;99.90;;;;;;5107791;22;20045;-85
2023/04/23 09:35:05;;;;;;;5.45;2.90;;;15.30;99.90;;;;;;5030090;28;20024;-87
2023/04/23 09:37:31;;;;;;;5.30;2.85;;;15.30;99.90;;;;;;5029223;28;20033;-86
2023/04/23 09:39:58;;;;;;;4.57;3.00;;;15.30;99.90;;;;;;5028737;28;20057;-89
2023/04/23 09:42:27;;;;;;;5.82;2.78;;;15.40;99.90;;;;;;5017110;28;20018;-89
2023/04/23 09:45:06;;;;;;;4.88;2.40;;;15.50;99.90;;;;;;5016278;28;20044;-88
2023/04/23 09:47:39;;;;;;;4.20;2.53;;;15.70;99.90;;;;;;5018083;28;20116;-88
2023/04/23 09:50:06;;;;;;;3.80;2.15;;;15.80;99.90;;;;;;5016192;28;20128;-87
2023/04/23 09:52:32;;;;;;;4.55;2.70;;;15.80;99.90;;;;;;5020815;28;20596;-87
2023/04/23 09:55:01;;;;;;;5.93;2.33;;;15.80;99.90;;;;;;5022017;28;20028;-85
2023/04/23 09:57:26;;;;;;;4.03;2.47;;;15.90;99.90;;;;;;5023124;28;20451;-86
2023/04/23 09:59:55;;;;;;;8.73;4.32;;;15.90;99.90;;;;;;5022258;28;20093;-86
2023/04/23 10:02:26;;;;;;;12.48;7.13;;;16.00;99.90;;;;;;5019027;28;20058;-87
2023/04/23 10:04:52;;;;;;;3.55;2.35;;;16.00;99.90;;;;;;5018590;28;20030;-87
2023/04/23 10:07:18;;;;;;;4.88;2.60;;;16.00;99.90;;;;;;5018823;28;20035;-86
2023/04/23 10:09:43;;;;;;;4.47;2.55;;;16.00;99.90;;;;;;5028717;28;20038;-83
2023/04/23 10:12:10;;;;;;;5.20;2.35;;;16.00;99.90;;;;;;5031922;28;20029;-83
2023/04/23 10:14:37;;;;;;;5.68;2.40;;;15.90;99.90;;;;;;5033152;28;20030;-83
2023/04/23 10:17:03;;;;;;;5.53;2.85;;;15.90;99.90;;;;;;5033160;28;20030;-83
2023/04/23 10:19:31;;;;;;;7.50;2.45;;;15.90;99.90;;;;;;5033450;28;20415;-83
2023/04/23 10:22:03;;;;;;;3.40;2.40;;;15.80;99.90;;;;;;5034746;28;20129;-84
2023/04/23 10:24:32;;;;;;;5.55;2.85;;;15.80;99.90;;;;;;5034261;28;20293;-83
2023/04/23 10:27:04;;;;;;;4.35;3.05;;;15.70;99.90;;;;;;5029564;28;20123;-83
2023/04/23 10:29:35;;;;;;;5.57;2.85;;;15.80;99.90;;;;;;5030951;28;20030;-83
2023/04/23 10:32:02;;;;;;;3.75;2.63;;;15.90;99.90;;;;;;5033816;28;20137;-83
2023/04/23 10:34:29;;;;;;;4.60;2.70;;;16.00;99.90;;;;;;5036169;28;20022;-83
2023/04/23 10:36:58;;;;;;;4.75;2.53;;;16.00;99.90;;;;;;5036411;28;20035;-84
2023/04/23 10:39:26;;;;;;;5.18;2.60;;;16.00;99.90;;;;;;5030845;28;20034;-83
2023/04/23 10:41:54;;;;;;;2.92;2.30;;;16.00;99.90;;;;;;5031690;28;21127;-83
2023/04/23 10:44:23;;;;;;;4.25;2.63;;;15.90;99.90;;;;;;5031878;28;20032;-83
2023/04/23 10:46:55;;;;;;;4.10;2.67;;;15.90;99.90;;;;;;5029908;28;20113;-83
2023/04/23 10:49:22;;;;;;;3.67;2.30;;;16.00;99.90;;;;;;5031238;28;20032;-82
2023/04/23 10:51:56;;;;;;;3.60;2.47;;;16.10;99.90;;;;;;5030241;28;20086;-83
2023/04/23 10:54:30;;;;;;;4.75;2.50;;;16.10;99.90;;;;;;5031028;28;20026;-83
2023/04/23 10:57:01;;;;;;;3.93;2.60;;;16.10;99.90;;;;;;5033116;28;20060;-83
2023/04/23 10:59:29;;;;;;;4.43;2.90;;;16.30;99.90;;;;;;5031745;28;20033;-83
2023/04/23 11:01:59;;;;;;;4.07;2.45;;;16.50;99.90;;;;;;5031677;28;20044;-82
2023/04/23 11:04:27;;;;;;;3.80;2.30;;;16.50;99.90;;;;;;5032446;28;20049;-83
2023/04/23 11:06:55;;;;;;;3.33;2.40;;;16.80;99.90;;;;;;5032368;28;20029;-83
2023/04/23 11:09:41;;;;;;;3.78;2.42;;;17.00;99.90;;;;;;5030421;28;20034;-83
2023/04/23 11:12:12;;;;;;;;;;;17.10;99.90;;;;;;5031124;28;20492;-84
2023/04/23 11:14:48;;;;;;;4.53;2.20;;;17.10;99.90;;;;;;5031447;28;19917;-84
2023/04/23 11:17:16;;;;;;;3.33;2.22;;;17.20;99.90;;;;;;5030829;28;20521;-83
2023/04/23 11:20:08;;;;;;;3.33;2.20;;;17.30;99.90;;;;;;5026717;28;20026;-84
2023/04/23 11:22:35;;;;;;;2.60;2.00;;;17.50;99.90;;;;;;5031497;28;20429;-83
2023/04/23 11:25:04;;;;;;;3.85;2.10;;;17.70;99.90;;;;;;5032112;28;20032;-83
2023/04/23 11:27:30;;;;;;;3.45;2.17;;;18.00;99.90;;;;;;5032543;28;20018;-84
2023/04/23 11:29:56;;;;;;;3.70;2.00;;;18.30;99.90;;;;;;5027473;28;20046;-82
2023/04/23 11:32:26;;;;;;;4.43;2.65;;;18.80;99.90;;;;;;5028970;28;20448;-84
2023/04/23 11:34:56;;;;;;;4.22;1.80;;;19.40;99.90;;;;;;5029185;28;20036;-84
2023/04/23 11:37:24;;;;;;;2.42;1.90;;;19.60;99.90;;;;;;5029204;28;20033;-85
2023/04/23 11:39:50;;;;;;;6.40;2.55;;;19.70;99.90;;;;;;5017269;28;20026;-79
2023/04/23 11:42:18;;;;;;;5.28;2.60;;;19.60;99.90;;;;;;5014292;28;20034;-77
2023/04/23 11:44:47;;;;;;;2.92;2.00;;;19.20;99.90;;;;;;5013462;28;20037;-75
2023/04/23 11:47:17;;;;;;;3.17;2.05;;;19.00;99.90;;;;;;5012656;28;20030;-76
2023/04/23 11:49:43;;;;;;;5.47;2.38;;;18.80;99.90;;;;;;5014317;28;20069;-76
2023/04/23 11:52:10;;;;;;;3.78;2.65;;;18.60;99.90;;;;;;5013518;28;20034;-79
2023/04/23 11:54:35;;;;;;;6.28;2.28;;;18.50;99.90;;;;;;5012886;28;20041;-75
2023/04/23 11:57:05;;;;;;;2.95;2.20;;;18.70;99.90;;;;;;5013489;28;20029;-75
2023/04/23 11:59:31;;;;;;;3.38;2.15;;;19.00;99.90;;;;;;5007849;28;20029;-76
2023/04/23 12:01:58;;;;;;;2.90;2.25;;;19.50;99.90;;;;;;5011379;28;20564;-76
2023/04/23 12:04:28;;;;;;;3.78;2.40;;;19.60;99.90;;;;;;5011552;28;20037;-76
2023/04/23 12:06:55;;;;;;;2.63;2.25;;;20.00;99.90;;;;;;5010371;28;20517;-76
2023/04/23 12:09:23;;;;;;;4.60;2.38;;;20.00;99.90;;;;;;5010134;28;20034;-75
2023/04/23 12:11:52;;;;;;;3.00;2.00;;;19.80;99.90;;;;;;5000643;28;20052;-76
2023/04/23 12:14:22;;;;;;;2.80;2.10;;;19.60;99.90;;;;;;5011647;28;20025;-76
2023/04/23 12:16:51;;;;;;;2.45;1.98;;;19.40;99.90;;;;;;5010350;28;20915;-76
2023/04/23 12:19:25;;;;;;;3.78;2.50;;;19.20;99.90;;;;;;5008687;28;20047;-76
2023/04/23 12:21:55;;;;;;;3.37;2.53;;;18.80;99.90;;;;;;5010637;28;20963;-76
2023/04/23 12:24:24;;;;;;;3.85;2.40;;;18.60;99.90;;;;;;5010687;28;20313;-76
2023/04/23 12:26:53;;;;;;;4.50;2.40;;;18.90;99.90;;;;;;5011927;28;20025;-76
2023/04/23 12:29:20;;;;;;;4.38;2.20;;;18.80;99.90;;;;;;5009906;28;20036;-77
2023/04/23 12:31:47;;;;;;;6.85;2.47;;;18.60;99.90;;;;;;5010480;28;20041;-76
2023/04/23 12:34:16;;;;;;;4.10;2.70;;;18.40;99.90;;;;;;5010681;28;20026;-76
2023/04/23 12:36:54;;;;;;;4.50;2.40;;;18.10;99.90;;;;;;5010611;28;20029;-75
2023/04/23 12:39:26;;;;;;;4.18;2.60;;;18.00;99.90;;;;;;5009718;28;20398;-75
2023/04/23 12:41:55;;;;;;;4.50;2.72;;;17.90;99.90;;;;;;5009951;28;20120;-75
2023/04/23 12:44:21;;;;;;;5.32;2.58;;;17.90;99.90;;;;;;5011474;28;20036;-75
2023/04/23 12:46:54;;;;;;;3.65;2.25;;;17.90;99.90;;;;;;5009238;28;20039;-75
2023/04/23 12:49:20;;;;;;;3.92;2.20;;;17.80;99.90;;;;;;5009677;28;20038;-75